Jenner, Canada
Current Conditions -  °F | °C
As of 7:00 AM on Tuesday 21 Oct 2014 (Local Time) from CYXH Reporting Station
Broken Clouds Broken Clouds  
Wind Chill: 41°   Ceiling: 10000
Heat Index: 45°   Visibility: 15mi
Dew Point: 39°   Wind: 6mph
Humidity: 81%   Direction: 230°SW
Pressure: 29.63"   Gusts: NA
Location:  50.75°N, 111.18°W
Report Text: CYXH 211300Z 23005KT 190V260 15SM FEW050 BKN100 07/04 A2963 RMK SC2AC5 VIRGA E-SE SLP040
Loading
Personal Weather Stations






























Interactive Weather Map
Tropical Storm Tracking
New forecast layout! Learn more

10-Day Weather Forecast

Advertisements
Track Severe Weather on mobile